Terminal Aerodrome Forecast
Issued by NWS

Home | Current Version | Previous Version | Text Only | Print | Product List | Glossary On
Versions: 1 2 3 4 5 6 7 8 9 10 11 12 13 14 15 16 17 18
000
FTUS43 KMQT 081739
TAFSAW
TAF
KSAW 081739Z 0818/0918 33013G21KT 1 1/2SM -SHSN OVC020
     FM082300 32011G18KT 3SM -SHSN OVC020
     FM090800 32011KT 3SM -SHSN OVC020
     FM091200 32011KT P6SM BKN020=

USA.gov is the U.S. government's official web portal to all federal, state and local government web resources and services.